sensor_id;sensor_type;location;lat;lon;timestamp;P1;durP1;ratioP1;P2;durP2;ratioP2
50337;SDS011;46221;51.178;5.900;2022-07-06T00:00:00;2.65;;;1.30;;
50337;SDS011;46221;51.178;5.900;2022-07-06T00:02:26;2.50;;;1.30;;
50337;SDS011;46221;51.178;5.900;2022-07-06T00:04:53;3.20;;;1.05;;
50337;SDS011;46221;51.178;5.900;2022-07-06T00:07:19;5.28;;;1.40;;
50337;SDS011;46221;51.178;5.900;2022-07-06T00:09:46;5.15;;;1.95;;
50337;SDS011;46221;51.178;5.900;2022-07-06T00:12:12;2.47;;;1.52;;
50337;SDS011;46221;51.178;5.900;2022-07-06T00:14:38;2.47;;;1.40;;
50337;SDS011;46221;51.178;5.900;2022-07-06T00:17:05;4.13;;;1.50;;
50337;SDS011;46221;51.178;5.900;2022-07-06T00:19:31;4.88;;;1.67;;
50337;SDS011;46221;51.178;5.900;2022-07-06T00:21:57;4.88;;;1.70;;
50337;SDS011;46221;51.178;5.900;2022-07-06T00:24:24;4.13;;;2.05;;
50337;SDS011;46221;51.178;5.900;2022-07-06T00:26:50;2.97;;;1.40;;
50337;SDS011;46221;51.178;5.900;2022-07-06T00:29:17;4.13;;;1.60;;
50337;SDS011;46221;51.178;5.900;2022-07-06T00:31:43;4.35;;;1.70;;
50337;SDS011;46221;51.178;5.900;2022-07-06T00:34:09;2.92;;;1.55;;
50337;SDS011;46221;51.178;5.900;2022-07-06T00:36:36;2.55;;;1.50;;
50337;SDS011;46221;51.178;5.900;2022-07-06T00:39:02;4.22;;;1.70;;
50337;SDS011;46221;51.178;5.900;2022-07-06T00:41:28;4.53;;;2.05;;
50337;SDS011;46221;51.178;5.900;2022-07-06T00:43:55;3.10;;;2.15;;
50337;SDS011;46221;51.178;5.900;2022-07-06T00:46:23;4.70;;;2.03;;
50337;SDS011;46221;51.178;5.900;2022-07-06T00:48:51;3.90;;;1.80;;
50337;SDS011;46221;51.178;5.900;2022-07-06T00:51:17;2.80;;;1.33;;
50337;SDS011;46221;51.178;5.900;2022-07-06T00:53:44;5.07;;;2.00;;
50337;SDS011;46221;51.178;5.900;2022-07-06T00:56:10;2.95;;;1.55;;
50337;SDS011;46221;51.178;5.900;2022-07-06T00:58:37;4.47;;;1.83;;
50337;SDS011;46221;51.178;5.900;2022-07-06T01:01:03;4.82;;;1.85;;
50337;SDS011;46221;51.178;5.900;2022-07-06T01:03:29;4.15;;;1.90;;
50337;SDS011;46221;51.178;5.900;2022-07-06T01:05:56;2.78;;;1.60;;
50337;SDS011;46221;51.178;5.900;2022-07-06T01:08:22;4.32;;;1.60;;
50337;SDS011;46221;51.178;5.900;2022-07-06T01:10:50;3.85;;;1.55;;
50337;SDS011;46221;51.178;5.900;2022-07-06T01:13:16;4.18;;;1.60;;
50337;SDS011;46221;51.178;5.900;2022-07-06T01:15:42;4.03;;;1.60;;
50337;SDS011;46221;51.178;5.900;2022-07-06T01:18:09;2.60;;;1.83;;
50337;SDS011;46221;51.178;5.900;2022-07-06T01:20:36;2.90;;;1.48;;
50337;SDS011;46221;51.178;5.900;2022-07-06T01:23:03;2.83;;;1.67;;
50337;SDS011;46221;51.178;5.900;2022-07-06T01:25:29;3.97;;;1.75;;
50337;SDS011;46221;51.178;5.900;2022-07-06T01:27:55;2.90;;;1.58;;
50337;SDS011;46221;51.178;5.900;2022-07-06T01:30:22;2.75;;;1.25;;
50337;SDS011;46221;51.178;5.900;2022-07-06T01:32:48;4.55;;;1.75;;
50337;SDS011;46221;51.178;5.900;2022-07-06T01:35:15;4.57;;;2.10;;
50337;SDS011;46221;51.178;5.900;2022-07-06T01:37:41;3.60;;;2.45;;
50337;SDS011;46221;51.178;5.900;2022-07-06T01:40:09;3.38;;;1.70;;
50337;SDS011;46221;51.178;5.900;2022-07-06T01:42:35;3.20;;;1.70;;
50337;SDS011;46221;51.178;5.900;2022-07-06T01:45:02;4.93;;;1.60;;
50337;SDS011;46221;51.178;5.900;2022-07-06T01:47:29;3.30;;;1.80;;
50337;SDS011;46221;51.178;5.900;2022-07-06T01:49:57;3.88;;;1.98;;
50337;SDS011;46221;51.178;5.900;2022-07-06T01:52:24;3.50;;;2.05;;
50337;SDS011;46221;51.178;5.900;2022-07-06T01:54:50;5.10;;;2.63;;
50337;SDS011;46221;51.178;5.900;2022-07-06T01:57:17;4.35;;;1.92;;
50337;SDS011;46221;51.178;5.900;2022-07-06T01:59:43;6.40;;;2.28;;
50337;SDS011;46221;51.178;5.900;2022-07-06T02:02:09;3.72;;;2.15;;
50337;SDS011;46221;51.178;5.900;2022-07-06T02:04:35;3.85;;;2.22;;
50337;SDS011;46221;51.178;5.900;2022-07-06T02:07:02;4.95;;;2.13;;
50337;SDS011;46221;51.178;5.900;2022-07-06T02:09:28;3.90;;;2.00;;
50337;SDS011;46221;51.178;5.900;2022-07-06T02:11:54;4.95;;;2.30;;
50337;SDS011;46221;51.178;5.900;2022-07-06T02:14:21;3.13;;;1.83;;
50337;SDS011;46221;51.178;5.900;2022-07-06T02:16:47;4.30;;;2.20;;
50337;SDS011;46221;51.178;5.900;2022-07-06T02:19:13;6.00;;;1.90;;
50337;SDS011;46221;51.178;5.900;2022-07-06T02:21:40;4.53;;;2.10;;
50337;SDS011;46221;51.178;5.900;2022-07-06T02:24:06;2.97;;;1.77;;
50337;SDS011;46221;51.178;5.900;2022-07-06T02:26:32;3.83;;;2.30;;
50337;SDS011;46221;51.178;5.900;2022-07-06T02:28:59;3.38;;;1.98;;
50337;SDS011;46221;51.178;5.900;2022-07-06T02:31:25;5.20;;;2.15;;
50337;SDS011;46221;51.178;5.900;2022-07-06T02:33:51;4.05;;;2.20;;
50337;SDS011;46221;51.178;5.900;2022-07-06T02:36:18;4.15;;;2.15;;
50337;SDS011;46221;51.178;5.900;2022-07-06T02:38:44;4.70;;;2.20;;
50337;SDS011;46221;51.178;5.900;2022-07-06T02:41:10;4.68;;;2.17;;
50337;SDS011;46221;51.178;5.900;2022-07-06T02:43:37;3.75;;;1.95;;
50337;SDS011;46221;51.178;5.900;2022-07-06T02:46:04;3.13;;;1.52;;
50337;SDS011;46221;51.178;5.900;2022-07-06T02:48:30;4.40;;;1.77;;
50337;SDS011;46221;51.178;5.900;2022-07-06T02:50:57;4.45;;;2.00;;
50337;SDS011;46221;51.178;5.900;2022-07-06T02:53:24;4.18;;;2.45;;
50337;SDS011;46221;51.178;5.900;2022-07-06T02:55:51;4.57;;;2.40;;
50337;SDS011;46221;51.178;5.900;2022-07-06T02:58:17;4.80;;;2.47;;
50337;SDS011;46221;51.178;5.900;2022-07-06T03:00:43;3.47;;;2.08;;
50337;SDS011;46221;51.178;5.900;2022-07-06T03:03:09;6.13;;;2.47;;
50337;SDS011;46221;51.178;5.900;2022-07-06T03:05:36;4.70;;;2.25;;
50337;SDS011;46221;51.178;5.900;2022-07-06T03:08:02;6.45;;;2.10;;
50337;SDS011;46221;51.178;5.900;2022-07-06T03:10:29;6.45;;;2.97;;
50337;SDS011;46221;51.178;5.900;2022-07-06T03:12:55;4.45;;;2.25;;
50337;SDS011;46221;51.178;5.900;2022-07-06T03:15:21;4.20;;;2.25;;
50337;SDS011;46221;51.178;5.900;2022-07-06T03:17:47;5.45;;;2.10;;
50337;SDS011;46221;51.178;5.900;2022-07-06T03:20:14;3.63;;;1.80;;
50337;SDS011;46221;51.178;5.900;2022-07-06T03:22:40;3.10;;;2.05;;
50337;SDS011;46221;51.178;5.900;2022-07-06T03:25:06;4.60;;;2.50;;
50337;SDS011;46221;51.178;5.900;2022-07-06T03:27:33;6.60;;;2.55;;
50337;SDS011;46221;51.178;5.900;2022-07-06T03:30:02;4.63;;;2.08;;
50337;SDS011;46221;51.178;5.900;2022-07-06T03:32:28;3.63;;;2.13;;
50337;SDS011;46221;51.178;5.900;2022-07-06T03:34:55;4.65;;;2.00;;
50337;SDS011;46221;51.178;5.900;2022-07-06T03:37:21;4.07;;;1.67;;
50337;SDS011;46221;51.178;5.900;2022-07-06T03:39:47;4.15;;;2.30;;
50337;SDS011;46221;51.178;5.900;2022-07-06T03:42:14;4.03;;;2.05;;
50337;SDS011;46221;51.178;5.900;2022-07-06T03:44:40;3.88;;;1.80;;
50337;SDS011;46221;51.178;5.900;2022-07-06T03:47:06;5.38;;;1.90;;
50337;SDS011;46221;51.178;5.900;2022-07-06T03:49:33;3.38;;;2.00;;
50337;SDS011;46221;51.178;5.900;2022-07-06T03:51:59;4.50;;;2.10;;
50337;SDS011;46221;51.178;5.900;2022-07-06T03:54:25;2.72;;;1.88;;
50337;SDS011;46221;51.178;5.900;2022-07-06T03:56:51;3.65;;;2.15;;
50337;SDS011;46221;51.178;5.900;2022-07-06T03:59:18;3.58;;;1.92;;
50337;SDS011;46221;51.178;5.900;2022-07-06T04:01:44;4.18;;;2.30;;
50337;SDS011;46221;51.178;5.900;2022-07-06T04:04:10;3.13;;;2.15;;
50337;SDS011;46221;51.178;5.900;2022-07-06T04:06:37;4.65;;;2.05;;
50337;SDS011;46221;51.178;5.900;2022-07-06T04:09:03;3.67;;;1.98;;
50337;SDS011;46221;51.178;5.900;2022-07-06T04:11:29;4.05;;;2.40;;
50337;SDS011;46221;51.178;5.900;2022-07-06T04:13:56;3.97;;;2.22;;
50337;SDS011;46221;51.178;5.900;2022-07-06T04:16:22;2.75;;;1.83;;
50337;SDS011;46221;51.178;5.900;2022-07-06T04:18:48;4.35;;;2.30;;
50337;SDS011;46221;51.178;5.900;2022-07-06T04:21:15;3.17;;;2.28;;
50337;SDS011;46221;51.178;5.900;2022-07-06T04:23:41;4.22;;;2.28;;
50337;SDS011;46221;51.178;5.900;2022-07-06T04:26:07;4.45;;;2.13;;
50337;SDS011;46221;51.178;5.900;2022-07-06T04:28:34;4.72;;;2.17;;
50337;SDS011;46221;51.178;5.900;2022-07-06T04:31:00;3.90;;;2.25;;
50337;SDS011;46221;51.178;5.900;2022-07-06T04:33:26;4.15;;;2.05;;
50337;SDS011;46221;51.178;5.900;2022-07-06T04:35:52;4.25;;;2.10;;
50337;SDS011;46221;51.178;5.900;2022-07-06T04:38:19;4.72;;;2.17;;
50337;SDS011;46221;51.178;5.900;2022-07-06T04:40:45;3.60;;;1.80;;
50337;SDS011;46221;51.178;5.900;2022-07-06T04:43:15;4.13;;;2.00;;
50337;SDS011;46221;51.178;5.900;2022-07-06T04:45:41;3.65;;;1.92;;
50337;SDS011;46221;51.178;5.900;2022-07-06T04:48:07;5.07;;;2.30;;
50337;SDS011;46221;51.178;5.900;2022-07-06T04:50:37;3.80;;;2.30;;
50337;SDS011;46221;51.178;5.900;2022-07-06T04:53:05;6.32;;;2.33;;
50337;SDS011;46221;51.178;5.900;2022-07-06T04:55:31;4.40;;;2.30;;
50337;SDS011;46221;51.178;5.900;2022-07-06T04:57:58;4.25;;;2.50;;
50337;SDS011;46221;51.178;5.900;2022-07-06T05:00:24;5.38;;;2.40;;
50337;SDS011;46221;51.178;5.900;2022-07-06T05:02:50;6.05;;;2.47;;
50337;SDS011;46221;51.178;5.900;2022-07-06T05:05:17;4.10;;;2.70;;
50337;SDS011;46221;51.178;5.900;2022-07-06T05:07:43;5.65;;;2.45;;
50337;SDS011;46221;51.178;5.900;2022-07-06T05:10:10;4.95;;;2.40;;
50337;SDS011;46221;51.178;5.900;2022-07-06T05:12:36;3.63;;;2.30;;
50337;SDS011;46221;51.178;5.900;2022-07-06T05:15:03;5.40;;;2.50;;
50337;SDS011;46221;51.178;5.900;2022-07-06T05:17:29;5.47;;;2.60;;
50337;SDS011;46221;51.178;5.900;2022-07-06T05:19:56;4.47;;;2.65;;
50337;SDS011;46221;51.178;5.900;2022-07-06T05:22:22;5.82;;;2.00;;
50337;SDS011;46221;51.178;5.900;2022-07-06T05:24:48;6.57;;;2.42;;
50337;SDS011;46221;51.178;5.900;2022-07-06T05:27:14;4.45;;;2.60;;
50337;SDS011;46221;51.178;5.900;2022-07-06T05:29:41;6.50;;;2.55;;
50337;SDS011;46221;51.178;5.900;2022-07-06T05:32:07;6.80;;;2.75;;
50337;SDS011;46221;51.178;5.900;2022-07-06T05:34:33;5.93;;;2.53;;
50337;SDS011;46221;51.178;5.900;2022-07-06T05:37:00;3.95;;;2.10;;
50337;SDS011;46221;51.178;5.900;2022-07-06T05:39:26;4.05;;;2.47;;
50337;SDS011;46221;51.178;5.900;2022-07-06T05:41:52;6.35;;;2.28;;
50337;SDS011;46221;51.178;5.900;2022-07-06T05:44:18;3.85;;;2.30;;
50337;SDS011;46221;51.178;5.900;2022-07-06T05:46:45;4.30;;;2.33;;
50337;SDS011;46221;51.178;5.900;2022-07-06T05:49:11;4.93;;;2.60;;
50337;SDS011;46221;51.178;5.900;2022-07-06T05:51:56;3.47;;;2.00;;
50337;SDS011;46221;51.178;5.900;2022-07-06T05:54:22;5.72;;;2.08;;
50337;SDS011;46221;51.178;5.900;2022-07-06T05:56:49;6.60;;;1.88;;
50337;SDS011;46221;51.178;5.900;2022-07-06T05:59:15;5.07;;;2.38;;
50337;SDS011;46221;51.178;5.900;2022-07-06T06:01:41;4.18;;;2.08;;
50337;SDS011;46221;51.178;5.900;2022-07-06T06:04:07;6.13;;;2.28;;
50337;SDS011;46221;51.178;5.900;2022-07-06T06:06:34;4.15;;;2.22;;
50337;SDS011;46221;51.178;5.900;2022-07-06T06:09:00;5.68;;;2.00;;
50337;SDS011;46221;51.178;5.900;2022-07-06T06:11:26;4.45;;;2.00;;
50337;SDS011;46221;51.178;5.900;2022-07-06T06:13:52;4.18;;;1.75;;
50337;SDS011;46221;51.178;5.900;2022-07-06T06:16:19;5.57;;;1.90;;
50337;SDS011;46221;51.178;5.900;2022-07-06T06:18:45;4.05;;;1.70;;
50337;SDS011;46221;51.178;5.900;2022-07-06T06:21:11;4.60;;;2.20;;
50337;SDS011;46221;51.178;5.900;2022-07-06T06:23:38;4.85;;;1.70;;
50337;SDS011;46221;51.178;5.900;2022-07-06T06:26:04;3.28;;;1.50;;
50337;SDS011;46221;51.178;5.900;2022-07-06T06:28:30;3.78;;;1.90;;
50337;SDS011;46221;51.178;5.900;2022-07-06T06:30:57;3.03;;;1.75;;
50337;SDS011;46221;51.178;5.900;2022-07-06T06:33:23;5.07;;;1.50;;
50337;SDS011;46221;51.178;5.900;2022-07-06T06:35:50;4.03;;;1.50;;
50337;SDS011;46221;51.178;5.900;2022-07-06T06:38:17;5.40;;;1.70;;
50337;SDS011;46221;51.178;5.900;2022-07-06T06:40:44;3.45;;;1.30;;
50337;SDS011;46221;51.178;5.900;2022-07-06T06:43:10;6.15;;;1.58;;
50337;SDS011;46221;51.178;5.900;2022-07-06T06:45:37;2.67;;;1.10;;
50337;SDS011;46221;51.178;5.900;2022-07-06T06:48:03;3.33;;;1.27;;
50337;SDS011;46221;51.178;5.900;2022-07-06T06:50:30;3.22;;;1.40;;
50337;SDS011;46221;51.178;5.900;2022-07-06T06:52:56;4.68;;;1.65;;
50337;SDS011;46221;51.178;5.900;2022-07-06T06:55:22;3.63;;;1.50;;
50337;SDS011;46221;51.178;5.900;2022-07-06T06:57:48;4.05;;;1.20;;
50337;SDS011;46221;51.178;5.900;2022-07-06T07:00:15;2.88;;;1.00;;
50337;SDS011;46221;51.178;5.900;2022-07-06T07:02:41;3.42;;;1.25;;
50337;SDS011;46221;51.178;5.900;2022-07-06T07:05:08;2.88;;;1.00;;
50337;SDS011;46221;51.178;5.900;2022-07-06T07:07:34;2.63;;;1.00;;
50337;SDS011;46221;51.178;5.900;2022-07-06T07:10:01;1.77;;;0.80;;
50337;SDS011;46221;51.178;5.900;2022-07-06T07:12:29;1.63;;;0.70;;
50337;SDS011;46221;51.178;5.900;2022-07-06T07:14:55;1.95;;;0.85;;
50337;SDS011;46221;51.178;5.900;2022-07-06T07:17:21;2.50;;;0.73;;
50337;SDS011;46221;51.178;5.900;2022-07-06T07:19:47;2.63;;;0.75;;
50337;SDS011;46221;51.178;5.900;2022-07-06T07:22:14;2.65;;;0.80;;
50337;SDS011;46221;51.178;5.900;2022-07-06T07:24:40;2.65;;;0.98;;
50337;SDS011;46221;51.178;5.900;2022-07-06T07:27:07;2.85;;;0.95;;
50337;SDS011;46221;51.178;5.900;2022-07-06T07:29:33;3.63;;;0.80;;
50337;SDS011;46221;51.178;5.900;2022-07-06T07:31:59;2.45;;;0.68;;
50337;SDS011;46221;51.178;5.900;2022-07-06T07:34:26;1.85;;;0.70;;
50337;SDS011;46221;51.178;5.900;2022-07-06T07:36:52;5.63;;;0.80;;
50337;SDS011;46221;51.178;5.900;2022-07-06T07:39:18;2.10;;;0.60;;
50337;SDS011;46221;51.178;5.900;2022-07-06T07:41:45;2.15;;;0.70;;
50337;SDS011;46221;51.178;5.900;2022-07-06T07:44:11;1.85;;;0.60;;
50337;SDS011;46221;51.178;5.900;2022-07-06T07:46:37;1.83;;;0.60;;
50337;SDS011;46221;51.178;5.900;2022-07-06T07:49:04;0.95;;;0.40;;
50337;SDS011;46221;51.178;5.900;2022-07-06T07:51:30;1.85;;;0.40;;
50337;SDS011;46221;51.178;5.900;2022-07-06T07:53:57;1.75;;;0.43;;
50337;SDS011;46221;51.178;5.900;2022-07-06T07:56:23;2.92;;;1.23;;
50337;SDS011;46221;51.178;5.900;2022-07-06T07:58:49;3.30;;;0.52;;
50337;SDS011;46221;51.178;5.900;2022-07-06T08:01:16;3.95;;;0.70;;
50337;SDS011;46221;51.178;5.900;2022-07-06T08:03:42;2.33;;;0.40;;
50337;SDS011;46221;51.178;5.900;2022-07-06T08:06:08;2.13;;;0.40;;
50337;SDS011;46221;51.178;5.900;2022-07-06T08:08:35;1.80;;;0.52;;
50337;SDS011;46221;51.178;5.900;2022-07-06T08:11:01;3.13;;;0.60;;
50337;SDS011;46221;51.178;5.900;2022-07-06T08:13:45;1.90;;;0.80;;
50337;SDS011;46221;51.178;5.900;2022-07-06T08:16:11;1.33;;;0.40;;
50337;SDS011;46221;51.178;5.900;2022-07-06T08:18:38;2.40;;;0.77;;
50337;SDS011;46221;51.178;5.900;2022-07-06T08:21:04;1.70;;;0.60;;
50337;SDS011;46221;51.178;5.900;2022-07-06T08:23:50;2.28;;;0.40;;
50337;SDS011;46221;51.178;5.900;2022-07-06T08:26:16;3.03;;;0.50;;
50337;SDS011;46221;51.178;5.900;2022-07-06T08:28:43;1.60;;;0.50;;
50337;SDS011;46221;51.178;5.900;2022-07-06T08:31:09;1.48;;;0.50;;
50337;SDS011;46221;51.178;5.900;2022-07-06T08:33:55;1.75;;;0.63;;
50337;SDS011;46221;51.178;5.900;2022-07-06T08:36:22;2.42;;;0.60;;
50337;SDS011;46221;51.178;5.900;2022-07-06T08:38:49;2.55;;;0.70;;
50337;SDS011;46221;51.178;5.900;2022-07-06T08:41:16;1.17;;;0.55;;
50337;SDS011;46221;51.178;5.900;2022-07-06T08:43:50;1.55;;;0.60;;
50337;SDS011;46221;51.178;5.900;2022-07-06T08:46:16;1.83;;;0.63;;
50337;SDS011;46221;51.178;5.900;2022-07-06T08:48:43;3.10;;;0.50;;
50337;SDS011;46221;51.178;5.900;2022-07-06T08:51:11;2.17;;;0.50;;
50337;SDS011;46221;51.178;5.900;2022-07-06T08:53:39;2.28;;;0.50;;
50337;SDS011;46221;51.178;5.900;2022-07-06T08:56:06;2.47;;;0.60;;
50337;SDS011;46221;51.178;5.900;2022-07-06T08:58:32;3.67;;;0.70;;
50337;SDS011;46221;51.178;5.900;2022-07-06T09:00:59;2.08;;;0.50;;
50337;SDS011;46221;51.178;5.900;2022-07-06T09:03:27;3.10;;;0.82;;
50337;SDS011;46221;51.178;5.900;2022-07-06T09:05:56;1.95;;;0.60;;
50337;SDS011;46221;51.178;5.900;2022-07-06T09:08:24;1.02;;;0.43;;
50337;SDS011;46221;51.178;5.900;2022-07-06T09:10:52;2.95;;;0.60;;
50337;SDS011;46221;51.178;5.900;2022-07-06T09:13:19;1.80;;;0.60;;
50337;SDS011;46221;51.178;5.900;2022-07-06T09:15:45;2.88;;;0.60;;
50337;SDS011;46221;51.178;5.900;2022-07-06T09:18:11;1.83;;;0.50;;
50337;SDS011;46221;51.178;5.900;2022-07-06T09:20:38;3.13;;;0.60;;
50337;SDS011;46221;51.178;5.900;2022-07-06T09:23:06;2.22;;;0.60;;
50337;SDS011;46221;51.178;5.900;2022-07-06T09:25:41;2.13;;;0.60;;
50337;SDS011;46221;51.178;5.900;2022-07-06T09:28:07;1.85;;;0.60;;
50337;SDS011;46221;51.178;5.900;2022-07-06T09:30:34;2.70;;;0.40;;
50337;SDS011;46221;51.178;5.900;2022-07-06T09:33:00;3.17;;;0.80;;
50337;SDS011;46221;51.178;5.900;2022-07-06T09:35:28;1.67;;;0.73;;
50337;SDS011;46221;51.178;5.900;2022-07-06T09:40:34;0.85;;;0.60;;
50337;SDS011;46221;51.178;5.900;2022-07-06T09:43:07;1.95;;;0.70;;
50337;SDS011;46221;51.178;5.900;2022-07-06T09:45:38;2.50;;;0.60;;
50337;SDS011;46221;51.178;5.900;2022-07-06T09:48:12;2.00;;;0.70;;
50337;SDS011;46221;51.178;5.900;2022-07-06T09:50:42;1.65;;;0.68;;
50337;SDS011;46221;51.178;5.900;2022-07-06T09:53:10;1.17;;;0.40;;
50337;SDS011;46221;51.178;5.900;2022-07-06T09:55:36;2.50;;;0.68;;
50337;SDS011;46221;51.178;5.900;2022-07-06T09:58:03;1.50;;;0.55;;
50337;SDS011;46221;51.178;5.900;2022-07-06T10:00:29;0.98;;;0.50;;
50337;SDS011;46221;51.178;5.900;2022-07-06T10:02:55;1.60;;;0.70;;
50337;SDS011;46221;51.178;5.900;2022-07-06T10:05:22;1.15;;;0.50;;
50337;SDS011;46221;51.178;5.900;2022-07-06T10:07:56;1.38;;;0.50;;
50337;SDS011;46221;51.178;5.900;2022-07-06T10:10:24;1.48;;;0.60;;
50337;SDS011;46221;51.178;5.900;2022-07-06T10:12:51;1.13;;;0.47;;
50337;SDS011;46221;51.178;5.900;2022-07-06T10:15:17;0.82;;;0.32;;
50337;SDS011;46221;51.178;5.900;2022-07-06T10:17:44;1.38;;;0.40;;
50337;SDS011;46221;51.178;5.900;2022-07-06T10:20:12;1.05;;;0.40;;
50337;SDS011;46221;51.178;5.900;2022-07-06T10:22:39;0.60;;;0.50;;
50337;SDS011;46221;51.178;5.900;2022-07-06T10:25:06;2.40;;;0.50;;
50337;SDS011;46221;51.178;5.900;2022-07-06T10:27:32;2.90;;;0.60;;
50337;SDS011;46221;51.178;5.900;2022-07-06T10:30:01;2.08;;;0.50;;
50337;SDS011;46221;51.178;5.900;2022-07-06T10:32:27;1.13;;;0.40;;
50337;SDS011;46221;51.178;5.900;2022-07-06T10:34:54;3.13;;;0.60;;
50337;SDS011;46221;51.178;5.900;2022-07-06T10:37:21;3.30;;;0.60;;
50337;SDS011;46221;51.178;5.900;2022-07-06T10:39:48;2.83;;;0.75;;
50337;SDS011;46221;51.178;5.900;2022-07-06T10:45:08;1.65;;;0.57;;
50337;SDS011;46221;51.178;5.900;2022-07-06T10:47:34;2.45;;;0.57;;
50337;SDS011;46221;51.178;5.900;2022-07-06T10:50:02;0.88;;;0.45;;
50337;SDS011;46221;51.178;5.900;2022-07-06T10:57:57;2.00;;;0.50;;
50337;SDS011;46221;51.178;5.900;2022-07-06T11:00:24;1.77;;;0.57;;
50337;SDS011;46221;51.178;5.900;2022-07-06T11:02:50;4.68;;;0.93;;
50337;SDS011;46221;51.178;5.900;2022-07-06T11:05:50;2.47;;;0.60;;
50337;SDS011;46221;51.178;5.900;2022-07-06T11:14:13;3.25;;;0.60;;
50337;SDS011;46221;51.178;5.900;2022-07-06T11:19:14;3.78;;;0.75;;
50337;SDS011;46221;51.178;5.900;2022-07-06T11:21:44;2.78;;;0.68;;
50337;SDS011;46221;51.178;5.900;2022-07-06T11:24:11;2.65;;;0.60;;
50337;SDS011;46221;51.178;5.900;2022-07-06T11:26:38;2.28;;;0.50;;
50337;SDS011;46221;51.178;5.900;2022-07-06T11:29:06;2.88;;;0.60;;
50337;SDS011;46221;51.178;5.900;2022-07-06T11:31:37;2.30;;;0.75;;
50337;SDS011;46221;51.178;5.900;2022-07-06T11:34:03;4.05;;;0.80;;
50337;SDS011;46221;51.178;5.900;2022-07-06T11:36:30;2.80;;;0.80;;
50337;SDS011;46221;51.178;5.900;2022-07-06T11:39:03;3.10;;;0.65;;
50337;SDS011;46221;51.178;5.900;2022-07-06T11:41:31;1.65;;;0.52;;
50337;SDS011;46221;51.178;5.900;2022-07-06T11:43:57;3.83;;;0.90;;
50337;SDS011;46221;51.178;5.900;2022-07-06T11:46:27;2.42;;;0.80;;
50337;SDS011;46221;51.178;5.900;2022-07-06T11:48:55;2.60;;;0.70;;
50337;SDS011;46221;51.178;5.900;2022-07-06T11:51:22;1.98;;;0.68;;
50337;SDS011;46221;51.178;5.900;2022-07-06T11:53:50;1.83;;;0.70;;
50337;SDS011;46221;51.178;5.900;2022-07-06T11:56:21;2.40;;;0.98;;
50337;SDS011;46221;51.178;5.900;2022-07-06T11:58:52;2.38;;;0.60;;
50337;SDS011;46221;51.178;5.900;2022-07-06T12:01:18;3.65;;;1.13;;
50337;SDS011;46221;51.178;5.900;2022-07-06T12:03:45;1.92;;;0.60;;
50337;SDS011;46221;51.178;5.900;2022-07-06T12:06:12;1.98;;;0.60;;
50337;SDS011;46221;51.178;5.900;2022-07-06T12:08:43;2.63;;;0.85;;
50337;SDS011;46221;51.178;5.900;2022-07-06T12:11:09;1.95;;;1.02;;
50337;SDS011;46221;51.178;5.900;2022-07-06T12:13:38;2.53;;;0.73;;
50337;SDS011;46221;51.178;5.900;2022-07-06T12:16:12;2.13;;;0.65;;
50337;SDS011;46221;51.178;5.900;2022-07-06T12:18:39;3.95;;;0.85;;
50337;SDS011;46221;51.178;5.900;2022-07-06T12:21:09;1.67;;;0.57;;
50337;SDS011;46221;51.178;5.900;2022-07-06T12:23:39;1.27;;;0.57;;
50337;SDS011;46221;51.178;5.900;2022-07-06T12:26:06;2.28;;;0.80;;
50337;SDS011;46221;51.178;5.900;2022-07-06T12:28:32;2.15;;;0.80;;
50337;SDS011;46221;51.178;5.900;2022-07-06T12:30:58;3.67;;;0.70;;
50337;SDS011;46221;51.178;5.900;2022-07-06T12:33:24;1.90;;;0.73;;
50337;SDS011;46221;51.178;5.900;2022-07-06T12:35:54;2.13;;;0.60;;
50337;SDS011;46221;51.178;5.900;2022-07-06T12:38:27;3.03;;;0.63;;
50337;SDS011;46221;51.178;5.900;2022-07-06T12:40:53;1.27;;;0.50;;
50337;SDS011;46221;51.178;5.900;2022-07-06T12:46:23;1.90;;;0.50;;
50337;SDS011;46221;51.178;5.900;2022-07-06T12:48:52;1.55;;;0.50;;
50337;SDS011;46221;51.178;5.900;2022-07-06T12:51:19;1.55;;;0.40;;
50337;SDS011;46221;51.178;5.900;2022-07-06T12:53:45;1.23;;;0.60;;
50337;SDS011;46221;51.178;5.900;2022-07-06T12:56:12;2.45;;;0.57;;
50337;SDS011;46221;51.178;5.900;2022-07-06T12:58:38;12.00;;;0.82;;
50337;SDS011;46221;51.178;5.900;2022-07-06T13:01:05;1.77;;;0.50;;
50337;SDS011;46221;51.178;5.900;2022-07-06T13:03:39;3.05;;;0.73;;
50337;SDS011;46221;51.178;5.900;2022-07-06T13:06:05;2.08;;;0.52;;
50337;SDS011;46221;51.178;5.900;2022-07-06T13:08:32;2.38;;;0.50;;
50337;SDS011;46221;51.178;5.900;2022-07-06T13:10:58;2.85;;;0.93;;
50337;SDS011;46221;51.178;5.900;2022-07-06T13:13:25;2.70;;;0.60;;
50337;SDS011;46221;51.178;5.900;2022-07-06T13:15:53;2.40;;;0.90;;
50337;SDS011;46221;51.178;5.900;2022-07-06T13:18:19;1.80;;;0.47;;
50337;SDS011;46221;51.178;5.900;2022-07-06T13:20:45;2.00;;;0.50;;
50337;SDS011;46221;51.178;5.900;2022-07-06T13:23:11;3.13;;;0.70;;
50337;SDS011;46221;51.178;5.900;2022-07-06T13:25:38;1.40;;;0.50;;
50337;SDS011;46221;51.178;5.900;2022-07-06T13:28:04;1.48;;;0.40;;
50337;SDS011;46221;51.178;5.900;2022-07-06T13:30:30;1.98;;;0.50;;
50337;SDS011;46221;51.178;5.900;2022-07-06T13:32:57;2.10;;;0.40;;
50337;SDS011;46221;51.178;5.900;2022-07-06T13:35:23;0.80;;;0.40;;
50337;SDS011;46221;51.178;5.900;2022-07-06T13:37:49;3.15;;;0.50;;
50337;SDS011;46221;51.178;5.900;2022-07-06T13:40:16;0.57;;;0.30;;
50337;SDS011;46221;51.178;5.900;2022-07-06T13:42:43;1.45;;;0.50;;
50337;SDS011;46221;51.178;5.900;2022-07-06T13:45:09;1.08;;;0.45;;
50337;SDS011;46221;51.178;5.900;2022-07-06T13:47:35;2.70;;;0.60;;
50337;SDS011;46221;51.178;5.900;2022-07-06T13:50:02;0.60;;;0.40;;
50337;SDS011;46221;51.178;5.900;2022-07-06T13:52:28;9.30;;;0.80;;
50337;SDS011;46221;51.178;5.900;2022-07-06T13:54:54;1.48;;;0.40;;
50337;SDS011;46221;51.178;5.900;2022-07-06T13:57:27;0.85;;;0.32;;
50337;SDS011;46221;51.178;5.900;2022-07-06T13:59:53;1.65;;;0.40;;
50337;SDS011;46221;51.178;5.900;2022-07-06T14:02:20;3.92;;;0.60;;
50337;SDS011;46221;51.178;5.900;2022-07-06T14:04:46;2.55;;;0.57;;
50337;SDS011;46221;51.178;5.900;2022-07-06T14:07:12;2.40;;;0.50;;
50337;SDS011;46221;51.178;5.900;2022-07-06T14:09:45;3.13;;;1.05;;
50337;SDS011;46221;51.178;5.900;2022-07-06T14:12:12;2.90;;;0.55;;
50337;SDS011;46221;51.178;5.900;2022-07-06T14:14:39;2.20;;;0.50;;
50337;SDS011;46221;51.178;5.900;2022-07-06T14:17:05;1.83;;;0.70;;
50337;SDS011;46221;51.178;5.900;2022-07-06T14:19:31;1.38;;;0.60;;
50337;SDS011;46221;51.178;5.900;2022-07-06T14:21:57;3.42;;;0.60;;
50337;SDS011;46221;51.178;5.900;2022-07-06T14:24:24;1.77;;;0.55;;
50337;SDS011;46221;51.178;5.900;2022-07-06T14:26:57;1.40;;;0.52;;
50337;SDS011;46221;51.178;5.900;2022-07-06T14:29:23;1.88;;;0.90;;
50337;SDS011;46221;51.178;5.900;2022-07-06T14:31:49;4.00;;;0.50;;
50337;SDS011;46221;51.178;5.900;2022-07-06T14:34:15;2.00;;;0.68;;
50337;SDS011;46221;51.178;5.900;2022-07-06T14:36:42;1.30;;;0.52;;
50337;SDS011;46221;51.178;5.900;2022-07-06T14:39:08;2.38;;;0.70;;
50337;SDS011;46221;51.178;5.900;2022-07-06T14:41:34;2.58;;;0.47;;
50337;SDS011;46221;51.178;5.900;2022-07-06T14:44:01;1.73;;;0.40;;
50337;SDS011;46221;51.178;5.900;2022-07-06T14:46:28;2.45;;;0.57;;
50337;SDS011;46221;51.178;5.900;2022-07-06T14:48:54;1.55;;;0.40;;
50337;SDS011;46221;51.178;5.900;2022-07-06T14:51:20;2.03;;;0.57;;
50337;SDS011;46221;51.178;5.900;2022-07-06T14:53:46;1.73;;;0.57;;
50337;SDS011;46221;51.178;5.900;2022-07-06T14:56:13;1.30;;;0.50;;
50337;SDS011;46221;51.178;5.900;2022-07-06T14:58:39;1.67;;;0.60;;
50337;SDS011;46221;51.178;5.900;2022-07-06T15:01:18;1.48;;;0.50;;
50337;SDS011;46221;51.178;5.900;2022-07-06T15:03:44;1.95;;;0.60;;
50337;SDS011;46221;51.178;5.900;2022-07-06T15:06:11;3.47;;;0.80;;
50337;SDS011;46221;51.178;5.900;2022-07-06T15:08:57;1.73;;;0.75;;